sensor_id;sensor_type;location;lat;lon;timestamp;P1;durP1;ratioP1;P2;durP2;ratioP2
15307;SDS011;7755;52.208;6.964;2023-10-19T00:00:42;14.23;;;12.30;;
15307;SDS011;7755;52.208;6.964;2023-10-19T00:04:49;15.43;;;13.83;;
15307;SDS011;7755;52.208;6.964;2023-10-19T00:08:52;15.47;;;13.37;;
15307;SDS011;7755;52.208;6.964;2023-10-19T00:12:57;15.97;;;14.07;;
15307;SDS011;7755;52.208;6.964;2023-10-19T00:17:01;17.60;;;15.00;;
15307;SDS011;7755;52.208;6.964;2023-10-19T00:21:07;19.63;;;16.20;;
15307;SDS011;7755;52.208;6.964;2023-10-19T00:25:21;17.83;;;13.93;;
15307;SDS011;7755;52.208;6.964;2023-10-19T00:29:26;17.17;;;14.87;;
15307;SDS011;7755;52.208;6.964;2023-10-19T00:33:41;17.57;;;15.00;;
15307;SDS011;7755;52.208;6.964;2023-10-19T00:37:44;16.87;;;13.83;;
15307;SDS011;7755;52.208;6.964;2023-10-19T00:41:48;21.77;;;16.23;;
15307;SDS011;7755;52.208;6.964;2023-10-19T00:45:52;18.67;;;15.13;;
15307;SDS011;7755;52.208;6.964;2023-10-19T00:49:55;17.30;;;15.07;;
15307;SDS011;7755;52.208;6.964;2023-10-19T00:54:05;18.33;;;16.37;;
15307;SDS011;7755;52.208;6.964;2023-10-19T00:58:11;17.87;;;15.33;;
15307;SDS011;7755;52.208;6.964;2023-10-19T01:02:21;20.80;;;15.90;;
15307;SDS011;7755;52.208;6.964;2023-10-19T01:06:32;20.17;;;16.43;;
15307;SDS011;7755;52.208;6.964;2023-10-19T01:10:34;17.00;;;14.60;;
15307;SDS011;7755;52.208;6.964;2023-10-19T01:14:38;17.53;;;15.50;;
15307;SDS011;7755;52.208;6.964;2023-10-19T01:18:43;16.83;;;14.53;;
15307;SDS011;7755;52.208;6.964;2023-10-19T01:22:49;14.00;;;12.30;;
15307;SDS011;7755;52.208;6.964;2023-10-19T01:26:55;14.93;;;13.17;;
15307;SDS011;7755;52.208;6.964;2023-10-19T01:30:58;16.03;;;13.17;;
15307;SDS011;7755;52.208;6.964;2023-10-19T01:35:10;18.30;;;14.67;;
15307;SDS011;7755;52.208;6.964;2023-10-19T01:39:16;16.57;;;14.80;;
15307;SDS011;7755;52.208;6.964;2023-10-19T01:43:22;13.83;;;12.47;;
15307;SDS011;7755;52.208;6.964;2023-10-19T01:47:27;15.83;;;13.90;;
15307;SDS011;7755;52.208;6.964;2023-10-19T01:51:31;14.07;;;12.27;;
15307;SDS011;7755;52.208;6.964;2023-10-19T01:55:40;15.37;;;13.77;;
15307;SDS011;7755;52.208;6.964;2023-10-19T01:59:46;15.73;;;14.17;;
15307;SDS011;7755;52.208;6.964;2023-10-19T02:03:49;16.27;;;14.57;;
15307;SDS011;7755;52.208;6.964;2023-10-19T02:12:29;17.03;;;15.00;;
15307;SDS011;7755;52.208;6.964;2023-10-19T02:16:31;14.97;;;13.47;;
15307;SDS011;7755;52.208;6.964;2023-10-19T02:20:35;15.93;;;14.20;;
15307;SDS011;7755;52.208;6.964;2023-10-19T02:24:41;18.03;;;15.40;;
15307;SDS011;7755;52.208;6.964;2023-10-19T02:28:45;14.73;;;13.27;;
15307;SDS011;7755;52.208;6.964;2023-10-19T02:32:49;15.23;;;13.73;;
15307;SDS011;7755;52.208;6.964;2023-10-19T02:36:53;15.20;;;13.70;;
15307;SDS011;7755;52.208;6.964;2023-10-19T02:40:56;16.73;;;14.80;;
15307;SDS011;7755;52.208;6.964;2023-10-19T02:45:00;16.97;;;15.17;;
15307;SDS011;7755;52.208;6.964;2023-10-19T02:49:04;14.97;;;13.47;;
15307;SDS011;7755;52.208;6.964;2023-10-19T02:53:11;13.97;;;12.57;;
15307;SDS011;7755;52.208;6.964;2023-10-19T02:57:22;15.23;;;13.63;;
15307;SDS011;7755;52.208;6.964;2023-10-19T03:01:26;17.57;;;15.67;;
15307;SDS011;7755;52.208;6.964;2023-10-19T03:05:32;13.23;;;11.93;;
15307;SDS011;7755;52.208;6.964;2023-10-19T03:09:36;15.77;;;14.27;;
15307;SDS011;7755;52.208;6.964;2023-10-19T03:13:40;13.90;;;12.50;;
15307;SDS011;7755;52.208;6.964;2023-10-19T03:17:46;21.17;;;17.07;;
15307;SDS011;7755;52.208;6.964;2023-10-19T03:21:50;20.70;;;17.93;;
15307;SDS011;7755;52.208;6.964;2023-10-19T03:25:54;18.50;;;16.33;;
15307;SDS011;7755;52.208;6.964;2023-10-19T03:30:22;12.87;;;11.57;;
15307;SDS011;7755;52.208;6.964;2023-10-19T03:34:30;15.00;;;13.53;;
15307;SDS011;7755;52.208;6.964;2023-10-19T03:38:36;16.83;;;15.03;;
15307;SDS011;7755;52.208;6.964;2023-10-19T03:42:40;15.90;;;14.37;;
15307;SDS011;7755;52.208;6.964;2023-10-19T03:46:42;13.47;;;12.17;;
15307;SDS011;7755;52.208;6.964;2023-10-19T03:50:57;18.83;;;16.83;;
15307;SDS011;7755;52.208;6.964;2023-10-19T03:55:03;16.40;;;14.90;;
15307;SDS011;7755;52.208;6.964;2023-10-19T03:59:12;18.97;;;16.40;;
15307;SDS011;7755;52.208;6.964;2023-10-19T04:03:17;16.40;;;14.70;;
15307;SDS011;7755;52.208;6.964;2023-10-19T04:07:39;20.50;;;18.30;;
15307;SDS011;7755;52.208;6.964;2023-10-19T04:11:56;17.83;;;16.03;;
15307;SDS011;7755;52.208;6.964;2023-10-19T04:16:08;17.70;;;15.93;;
15307;SDS011;7755;52.208;6.964;2023-10-19T04:20:15;20.30;;;17.57;;
15307;SDS011;7755;52.208;6.964;2023-10-19T04:24:35;20.40;;;18.13;;
15307;SDS011;7755;52.208;6.964;2023-10-19T04:28:54;27.27;;;20.60;;
15307;SDS011;7755;52.208;6.964;2023-10-19T04:37:19;20.17;;;17.57;;
15307;SDS011;7755;52.208;6.964;2023-10-19T04:41:28;22.07;;;19.77;;
15307;SDS011;7755;52.208;6.964;2023-10-19T04:45:31;20.97;;;18.80;;
15307;SDS011;7755;52.208;6.964;2023-10-19T04:49:33;21.63;;;19.13;;
15307;SDS011;7755;52.208;6.964;2023-10-19T04:53:36;21.53;;;19.13;;
15307;SDS011;7755;52.208;6.964;2023-10-19T04:57:41;21.63;;;19.13;;
15307;SDS011;7755;52.208;6.964;2023-10-19T05:01:44;21.57;;;19.10;;
15307;SDS011;7755;52.208;6.964;2023-10-19T05:05:47;23.83;;;18.97;;
15307;SDS011;7755;52.208;6.964;2023-10-19T05:09:49;20.43;;;18.10;;
15307;SDS011;7755;52.208;6.964;2023-10-19T05:13:53;28.53;;;20.67;;
15307;SDS011;7755;52.208;6.964;2023-10-19T05:17:56;27.57;;;22.87;;
15307;SDS011;7755;52.208;6.964;2023-10-19T05:21:59;20.27;;;18.13;;
15307;SDS011;7755;52.208;6.964;2023-10-19T05:26:03;23.40;;;19.87;;
15307;SDS011;7755;52.208;6.964;2023-10-19T05:30:09;20.43;;;16.47;;
15307;SDS011;7755;52.208;6.964;2023-10-19T05:34:13;21.33;;;18.23;;
15307;SDS011;7755;52.208;6.964;2023-10-19T05:38:17;20.87;;;18.73;;
15307;SDS011;7755;52.208;6.964;2023-10-19T05:42:23;23.83;;;18.87;;
15307;SDS011;7755;52.208;6.964;2023-10-19T05:46:27;20.90;;;16.87;;
15307;SDS011;7755;52.208;6.964;2023-10-19T05:50:30;26.27;;;20.80;;
15307;SDS011;7755;52.208;6.964;2023-10-19T05:54:33;34.97;;;29.93;;
15307;SDS011;7755;52.208;6.964;2023-10-19T05:58:36;20.60;;;18.37;;
15307;SDS011;7755;52.208;6.964;2023-10-19T06:02:43;19.43;;;16.37;;
15307;SDS011;7755;52.208;6.964;2023-10-19T06:06:47;19.30;;;16.43;;
15307;SDS011;7755;52.208;6.964;2023-10-19T06:10:50;18.50;;;16.50;;
15307;SDS011;7755;52.208;6.964;2023-10-19T06:14:54;23.63;;;18.90;;
15307;SDS011;7755;52.208;6.964;2023-10-19T06:18:58;14.97;;;13.57;;
15307;SDS011;7755;52.208;6.964;2023-10-19T06:23:01;22.43;;;18.77;;
15307;SDS011;7755;52.208;6.964;2023-10-19T06:27:06;18.07;;;15.47;;
15307;SDS011;7755;52.208;6.964;2023-10-19T06:31:10;15.43;;;13.93;;
15307;SDS011;7755;52.208;6.964;2023-10-19T06:35:14;18.93;;;16.97;;
15307;SDS011;7755;52.208;6.964;2023-10-19T06:39:17;20.27;;;16.73;;
15307;SDS011;7755;52.208;6.964;2023-10-19T06:43:22;21.37;;;17.87;;
15307;SDS011;7755;52.208;6.964;2023-10-19T06:47:32;20.30;;;16.27;;
15307;SDS011;7755;52.208;6.964;2023-10-19T06:51:39;17.30;;;14.93;;
15307;SDS011;7755;52.208;6.964;2023-10-19T06:55:42;16.17;;;14.57;;
15307;SDS011;7755;52.208;6.964;2023-10-19T06:59:45;18.93;;;16.93;;
15307;SDS011;7755;52.208;6.964;2023-10-19T07:03:48;22.17;;;18.77;;
15307;SDS011;7755;52.208;6.964;2023-10-19T07:07:56;15.70;;;14.10;;
15307;SDS011;7755;52.208;6.964;2023-10-19T07:12:01;19.53;;;17.13;;
15307;SDS011;7755;52.208;6.964;2023-10-19T07:16:04;17.60;;;15.20;;
15307;SDS011;7755;52.208;6.964;2023-10-19T07:20:11;18.33;;;16.40;;
15307;SDS011;7755;52.208;6.964;2023-10-19T07:24:28;17.10;;;14.83;;
15307;SDS011;7755;52.208;6.964;2023-10-19T07:28:31;21.17;;;17.37;;
15307;SDS011;7755;52.208;6.964;2023-10-19T07:32:39;18.00;;;16.10;;
15307;SDS011;7755;52.208;6.964;2023-10-19T07:36:41;20.43;;;15.50;;
15307;SDS011;7755;52.208;6.964;2023-10-19T07:40:46;13.73;;;12.33;;
15307;SDS011;7755;52.208;6.964;2023-10-19T07:44:49;13.43;;;11.93;;
15307;SDS011;7755;52.208;6.964;2023-10-19T07:48:52;14.00;;;12.47;;
15307;SDS011;7755;52.208;6.964;2023-10-19T07:52:54;12.23;;;10.97;;
15307;SDS011;7755;52.208;6.964;2023-10-19T07:56:58;13.93;;;12.20;;
15307;SDS011;7755;52.208;6.964;2023-10-19T08:01:04;13.43;;;10.43;;
15307;SDS011;7755;52.208;6.964;2023-10-19T08:05:07;14.47;;;11.27;;
15307;SDS011;7755;52.208;6.964;2023-10-19T08:09:13;9.23;;;8.43;;
15307;SDS011;7755;52.208;6.964;2023-10-19T08:13:25;9.73;;;8.67;;
15307;SDS011;7755;52.208;6.964;2023-10-19T08:17:32;9.37;;;8.43;;
15307;SDS011;7755;52.208;6.964;2023-10-19T08:21:36;8.63;;;7.83;;
15307;SDS011;7755;52.208;6.964;2023-10-19T08:25:39;11.40;;;9.17;;
15307;SDS011;7755;52.208;6.964;2023-10-19T08:29:58;9.13;;;7.80;;
15307;SDS011;7755;52.208;6.964;2023-10-19T08:34:01;8.60;;;7.77;;
15307;SDS011;7755;52.208;6.964;2023-10-19T08:38:04;10.20;;;7.53;;
15307;SDS011;7755;52.208;6.964;2023-10-19T08:42:13;8.17;;;7.23;;
15307;SDS011;7755;52.208;6.964;2023-10-19T08:46:17;7.37;;;6.53;;
15307;SDS011;7755;52.208;6.964;2023-10-19T08:50:20;8.23;;;6.03;;
15307;SDS011;7755;52.208;6.964;2023-10-19T08:54:25;7.07;;;6.37;;
15307;SDS011;7755;52.208;6.964;2023-10-19T08:58:29;7.97;;;6.47;;
15307;SDS011;7755;52.208;6.964;2023-10-19T09:02:33;8.23;;;6.90;;
15307;SDS011;7755;52.208;6.964;2023-10-19T09:06:36;10.37;;;7.07;;
15307;SDS011;7755;52.208;6.964;2023-10-19T09:10:43;8.03;;;5.73;;
15307;SDS011;7755;52.208;6.964;2023-10-19T09:14:48;8.60;;;6.10;;
15307;SDS011;7755;52.208;6.964;2023-10-19T09:18:52;6.43;;;5.53;;
15307;SDS011;7755;52.208;6.964;2023-10-19T09:22:55;6.10;;;5.50;;
15307;SDS011;7755;52.208;6.964;2023-10-19T09:26:59;7.00;;;6.10;;
15307;SDS011;7755;52.208;6.964;2023-10-19T09:31:04;9.07;;;6.70;;
15307;SDS011;7755;52.208;6.964;2023-10-19T09:35:13;7.07;;;5.53;;
15307;SDS011;7755;52.208;6.964;2023-10-19T09:39:17;8.10;;;7.13;;
15307;SDS011;7755;52.208;6.964;2023-10-19T09:43:21;5.80;;;5.30;;
15307;SDS011;7755;52.208;6.964;2023-10-19T09:47:29;7.77;;;5.13;;
15307;SDS011;7755;52.208;6.964;2023-10-19T09:51:38;6.00;;;4.80;;
15307;SDS011;7755;52.208;6.964;2023-10-19T09:55:56;7.53;;;4.80;;
15307;SDS011;7755;52.208;6.964;2023-10-19T10:00:02;8.80;;;5.20;;
15307;SDS011;7755;52.208;6.964;2023-10-19T10:04:26;5.57;;;4.70;;
15307;SDS011;7755;52.208;6.964;2023-10-19T10:08:36;7.30;;;4.80;;
15307;SDS011;7755;52.208;6.964;2023-10-19T10:12:39;4.77;;;4.23;;
15307;SDS011;7755;52.208;6.964;2023-10-19T10:16:42;6.27;;;4.53;;
15307;SDS011;7755;52.208;6.964;2023-10-19T10:20:46;5.60;;;4.53;;
15307;SDS011;7755;52.208;6.964;2023-10-19T10:24:54;6.10;;;4.90;;
15307;SDS011;7755;52.208;6.964;2023-10-19T10:29:08;7.37;;;4.63;;
15307;SDS011;7755;52.208;6.964;2023-10-19T10:37:45;8.73;;;4.80;;
15307;SDS011;7755;52.208;6.964;2023-10-19T10:41:58;9.50;;;5.50;;
15307;SDS011;7755;52.208;6.964;2023-10-19T10:46:04;7.90;;;4.80;;
15307;SDS011;7755;52.208;6.964;2023-10-19T10:50:08;6.50;;;5.10;;
15307;SDS011;7755;52.208;6.964;2023-10-19T10:54:11;8.03;;;4.97;;
15307;SDS011;7755;52.208;6.964;2023-10-19T10:58:16;5.90;;;4.10;;
15307;SDS011;7755;52.208;6.964;2023-10-19T11:02:19;5.23;;;4.63;;
15307;SDS011;7755;52.208;6.964;2023-10-19T11:06:23;5.23;;;3.60;;
15307;SDS011;7755;52.208;6.964;2023-10-19T11:10:26;5.67;;;4.63;;
15307;SDS011;7755;52.208;6.964;2023-10-19T11:14:32;8.37;;;5.03;;
15307;SDS011;7755;52.208;6.964;2023-10-19T11:18:35;5.17;;;4.07;;
15307;SDS011;7755;52.208;6.964;2023-10-19T11:22:47;5.07;;;3.90;;
15307;SDS011;7755;52.208;6.964;2023-10-19T11:26:51;7.33;;;4.13;;
15307;SDS011;7755;52.208;6.964;2023-10-19T11:31:00;5.90;;;4.00;;
15307;SDS011;7755;52.208;6.964;2023-10-19T11:35:13;7.23;;;4.50;;
15307;SDS011;7755;52.208;6.964;2023-10-19T11:39:16;4.80;;;3.67;;
15307;SDS011;7755;52.208;6.964;2023-10-19T11:43:19;7.03;;;4.07;;
15307;SDS011;7755;52.208;6.964;2023-10-19T11:47:23;7.00;;;3.83;;
15307;SDS011;7755;52.208;6.964;2023-10-19T11:51:26;4.10;;;3.07;;
15307;SDS011;7755;52.208;6.964;2023-10-19T11:55:29;5.37;;;3.70;;
15307;SDS011;7755;52.208;6.964;2023-10-19T11:59:32;4.20;;;3.23;;
15307;SDS011;7755;52.208;6.964;2023-10-19T12:03:37;5.10;;;2.90;;
15307;SDS011;7755;52.208;6.964;2023-10-19T12:07:41;5.47;;;3.73;;
15307;SDS011;7755;52.208;6.964;2023-10-19T12:11:46;3.47;;;3.07;;
15307;SDS011;7755;52.208;6.964;2023-10-19T12:15:51;6.43;;;3.30;;
15307;SDS011;7755;52.208;6.964;2023-10-19T12:19:57;5.33;;;3.20;;
15307;SDS011;7755;52.208;6.964;2023-10-19T12:24:00;3.37;;;2.60;;
15307;SDS011;7755;52.208;6.964;2023-10-19T12:28:06;5.93;;;2.70;;
15307;SDS011;7755;52.208;6.964;2023-10-19T12:32:08;5.93;;;2.60;;
15307;SDS011;7755;52.208;6.964;2023-10-19T12:36:15;4.63;;;2.50;;
15307;SDS011;7755;52.208;6.964;2023-10-19T12:40:32;6.30;;;2.50;;
15307;SDS011;7755;52.208;6.964;2023-10-19T12:44:37;5.10;;;2.57;;
15307;SDS011;7755;52.208;6.964;2023-10-19T12:48:43;5.87;;;2.93;;
15307;SDS011;7755;52.208;6.964;2023-10-19T12:52:49;8.67;;;2.60;;
15307;SDS011;7755;52.208;6.964;2023-10-19T12:56:52;4.63;;;2.90;;
15307;SDS011;7755;52.208;6.964;2023-10-19T13:00:55;5.83;;;3.30;;
15307;SDS011;7755;52.208;6.964;2023-10-19T13:04:59;5.20;;;2.70;;
15307;SDS011;7755;52.208;6.964;2023-10-19T13:09:03;6.90;;;2.90;;
15307;SDS011;7755;52.208;6.964;2023-10-19T13:13:07;5.07;;;3.10;;
15307;SDS011;7755;52.208;6.964;2023-10-19T13:17:12;5.57;;;2.87;;
15307;SDS011;7755;52.208;6.964;2023-10-19T13:21:15;4.57;;;2.73;;
15307;SDS011;7755;52.208;6.964;2023-10-19T13:25:24;4.30;;;2.80;;
15307;SDS011;7755;52.208;6.964;2023-10-19T13:29:40;8.00;;;2.53;;
15307;SDS011;7755;52.208;6.964;2023-10-19T13:33:43;7.63;;;2.60;;
15307;SDS011;7755;52.208;6.964;2023-10-19T13:37:47;8.57;;;2.50;;
15307;SDS011;7755;52.208;6.964;2023-10-19T13:41:51;5.57;;;2.80;;
15307;SDS011;7755;52.208;6.964;2023-10-19T13:45:54;5.67;;;2.67;;
15307;SDS011;7755;52.208;6.964;2023-10-19T13:49:58;5.37;;;2.57;;
15307;SDS011;7755;52.208;6.964;2023-10-19T13:54:02;7.17;;;3.20;;
15307;SDS011;7755;52.208;6.964;2023-10-19T13:58:06;5.57;;;2.93;;
15307;SDS011;7755;52.208;6.964;2023-10-19T14:02:09;4.33;;;2.90;;
15307;SDS011;7755;52.208;6.964;2023-10-19T14:06:12;3.60;;;2.57;;
15307;SDS011;7755;52.208;6.964;2023-10-19T14:10:16;6.87;;;3.33;;
15307;SDS011;7755;52.208;6.964;2023-10-19T14:14:22;5.57;;;2.87;;
15307;SDS011;7755;52.208;6.964;2023-10-19T14:18:24;7.17;;;3.07;;
15307;SDS011;7755;52.208;6.964;2023-10-19T14:22:29;4.27;;;2.70;;
15307;SDS011;7755;52.208;6.964;2023-10-19T14:26:35;7.27;;;3.40;;
15307;SDS011;7755;52.208;6.964;2023-10-19T14:30:41;6.73;;;3.70;;
15307;SDS011;7755;52.208;6.964;2023-10-19T14:34:43;5.57;;;3.43;;
15307;SDS011;7755;52.208;6.964;2023-10-19T14:38:46;9.33;;;4.47;;
15307;SDS011;7755;52.208;6.964;2023-10-19T14:42:50;8.23;;;5.27;;
15307;SDS011;7755;52.208;6.964;2023-10-19T14:46:57;7.97;;;5.77;;
15307;SDS011;7755;52.208;6.964;2023-10-19T14:50:59;5.80;;;5.30;;
15307;SDS011;7755;52.208;6.964;2023-10-19T14:55:03;6.33;;;5.50;;
15307;SDS011;7755;52.208;6.964;2023-10-19T14:59:07;9.20;;;7.17;;
15307;SDS011;7755;52.208;6.964;2023-10-19T15:03:11;8.20;;;7.40;;
15307;SDS011;7755;52.208;6.964;2023-10-19T15:07:15;9.30;;;7.30;;
15307;SDS011;7755;52.208;6.964;2023-10-19T15:11:18;9.10;;;7.10;;
15307;SDS011;7755;52.208;6.964;2023-10-19T15:15:23;8.50;;;7.57;;
15307;SDS011;7755;52.208;6.964;2023-10-19T15:19:28;9.37;;;8.43;;
15307;SDS011;7755;52.208;6.964;2023-10-19T15:23:30;9.43;;;8.43;;
15307;SDS011;7755;52.208;6.964;2023-10-19T15:27:33;11.67;;;9.93;;
15307;SDS011;7755;52.208;6.964;2023-10-19T15:31:36;9.97;;;8.73;;
15307;SDS011;7755;52.208;6.964;2023-10-19T15:35:40;9.67;;;8.87;;
15307;SDS011;7755;52.208;6.964;2023-10-19T15:39:44;9.07;;;8.27;;
15307;SDS011;7755;52.208;6.964;2023-10-19T15:43:49;9.33;;;8.33;;
15307;SDS011;7755;52.208;6.964;2023-10-19T15:47:52;8.50;;;7.80;;
15307;SDS011;7755;52.208;6.964;2023-10-19T15:51:58;7.80;;;7.00;;
15307;SDS011;7755;52.208;6.964;2023-10-19T15:56:01;7.83;;;7.03;;
15307;SDS011;7755;52.208;6.964;2023-10-19T16:00:05;6.73;;;6.20;;
15307;SDS011;7755;52.208;6.964;2023-10-19T16:04:11;8.93;;;7.23;;
15307;SDS011;7755;52.208;6.964;2023-10-19T16:08:15;8.07;;;7.37;;
15307;SDS011;7755;52.208;6.964;2023-10-19T16:12:18;8.80;;;8.00;;
15307;SDS011;7755;52.208;6.964;2023-10-19T16:16:21;9.23;;;8.43;;
15307;SDS011;7755;52.208;6.964;2023-10-19T16:20:24;8.73;;;7.93;;
15307;SDS011;7755;52.208;6.964;2023-10-19T16:24:28;11.00;;;8.63;;
15307;SDS011;7755;52.208;6.964;2023-10-19T16:28:31;8.50;;;7.70;;
15307;SDS011;7755;52.208;6.964;2023-10-19T16:32:34;7.67;;;6.80;;
15307;SDS011;7755;52.208;6.964;2023-10-19T16:36:38;8.10;;;7.40;;
15307;SDS011;7755;52.208;6.964;2023-10-19T16:40:42;7.50;;;6.80;;
15307;SDS011;7755;52.208;6.964;2023-10-19T16:44:45;7.53;;;6.87;;
15307;SDS011;7755;52.208;6.964;2023-10-19T16:48:47;11.20;;;8.00;;
15307;SDS011;7755;52.208;6.964;2023-10-19T16:52:50;11.70;;;9.67;;
15307;SDS011;7755;52.208;6.964;2023-10-19T16:56:54;9.40;;;8.50;;
15307;SDS011;7755;52.208;6.964;2023-10-19T17:00:57;10.03;;;8.30;;
15307;SDS011;7755;52.208;6.964;2023-10-19T17:05:00;8.40;;;7.60;;
15307;SDS011;7755;52.208;6.964;2023-10-19T17:09:08;8.37;;;7.60;;
15307;SDS011;7755;52.208;6.964;2023-10-19T17:13:14;7.67;;;6.93;;
15307;SDS011;7755;52.208;6.964;2023-10-19T17:17:17;10.03;;;8.40;;
15307;SDS011;7755;52.208;6.964;2023-10-19T17:21:21;8.30;;;7.50;;
15307;SDS011;7755;52.208;6.964;2023-10-19T17:25:24;11.10;;;9.13;;
15307;SDS011;7755;52.208;6.964;2023-10-19T17:29:30;11.60;;;9.10;;
15307;SDS011;7755;52.208;6.964;2023-10-19T17:33:33;14.30;;;12.80;;
15307;SDS011;7755;52.208;6.964;2023-10-19T17:37:36;13.13;;;11.83;;
15307;SDS011;7755;52.208;6.964;2023-10-19T17:41:38;17.30;;;15.50;;
15307;SDS011;7755;52.208;6.964;2023-10-19T17:45:48;18.97;;;17.00;;
15307;SDS011;7755;52.208;6.964;2023-10-19T17:49:51;22.10;;;18.07;;
15307;SDS011;7755;52.208;6.964;2023-10-19T17:53:54;24.70;;;22.23;;
15307;SDS011;7755;52.208;6.964;2023-10-19T17:57:56;21.90;;;19.50;;
15307;SDS011;7755;52.208;6.964;2023-10-19T18:02:01;21.63;;;19.37;;
15307;SDS011;7755;52.208;6.964;2023-10-19T18:06:05;28.23;;;22.93;;
15307;SDS011;7755;52.208;6.964;2023-10-19T18:10:09;25.03;;;22.50;;
15307;SDS011;7755;52.208;6.964;2023-10-19T18:14:13;22.50;;;20.00;;
15307;SDS011;7755;52.208;6.964;2023-10-19T18:18:17;21.53;;;19.33;;
15307;SDS011;7755;52.208;6.964;2023-10-19T18:22:20;23.20;;;20.77;;
15307;SDS011;7755;52.208;6.964;2023-10-19T18:26:23;23.53;;;20.97;;
15307;SDS011;7755;52.208;6.964;2023-10-19T18:30:26;32.40;;;26.87;;
15307;SDS011;7755;52.208;6.964;2023-10-19T18:34:30;27.57;;;22.80;;
15307;SDS011;7755;52.208;6.964;2023-10-19T18:38:34;28.70;;;24.33;;
15307;SDS011;7755;52.208;6.964;2023-10-19T18:42:37;22.83;;;20.50;;
15307;SDS011;7755;52.208;6.964;2023-10-19T18:46:40;23.20;;;20.67;;
15307;SDS011;7755;52.208;6.964;2023-10-19T18:50:44;25.13;;;20.93;;
15307;SDS011;7755;52.208;6.964;2023-10-19T18:54:58;28.33;;;23.93;;
15307;SDS011;7755;52.208;6.964;2023-10-19T18:59:02;25.47;;;22.77;;
15307;SDS011;7755;52.208;6.964;2023-10-19T19:03:05;24.67;;;22.07;;
15307;SDS011;7755;52.208;6.964;2023-10-19T19:07:09;24.30;;;21.70;;
15307;SDS011;7755;52.208;6.964;2023-10-19T19:11:13;24.70;;;22.10;;
15307;SDS011;7755;52.208;6.964;2023-10-19T19:15:17;25.43;;;22.67;;
15307;SDS011;7755;52.208;6.964;2023-10-19T19:19:20;28.27;;;24.80;;
15307;SDS011;7755;52.208;6.964;2023-10-19T19:23:24;31.07;;;26.23;;
15307;SDS011;7755;52.208;6.964;2023-10-19T19:27:27;26.47;;;22.47;;
15307;SDS011;7755;52.208;6.964;2023-10-19T19:31:30;30.97;;;24.50;;
15307;SDS011;7755;52.208;6.964;2023-10-19T19:35:32;29.93;;;22.93;;
15307;SDS011;7755;52.208;6.964;2023-10-19T19:39:36;24.13;;;21.57;;
15307;SDS011;7755;52.208;6.964;2023-10-19T19:43:39;27.07;;;22.23;;
15307;SDS011;7755;52.208;6.964;2023-10-19T19:47:42;31.67;;;27.17;;
15307;SDS011;7755;52.208;6.964;2023-10-19T19:51:46;29.83;;;24.67;;
15307;SDS011;7755;52.208;6.964;2023-10-19T19:55:50;28.73;;;24.30;;
15307;SDS011;7755;52.208;6.964;2023-10-19T19:59:54;30.23;;;26.50;;
15307;SDS011;7755;52.208;6.964;2023-10-19T20:03:57;29.13;;;23.67;;
15307;SDS011;7755;52.208;6.964;2023-10-19T20:08:02;32.87;;;27.13;;
15307;SDS011;7755;52.208;6.964;2023-10-19T20:12:07;30.57;;;24.17;;
15307;SDS011;7755;52.208;6.964;2023-10-19T20:16:11;30.40;;;24.73;;
15307;SDS011;7755;52.208;6.964;2023-10-19T20:20:14;31.57;;;25.23;;
15307;SDS011;7755;52.208;6.964;2023-10-19T20:24:17;32.53;;;26.53;;
15307;SDS011;7755;52.208;6.964;2023-10-19T20:28:21;27.37;;;23.40;;
15307;SDS011;7755;52.208;6.964;2023-10-19T20:32:24;26.10;;;23.40;;
15307;SDS011;7755;52.208;6.964;2023-10-19T20:36:27;32.93;;;25.70;;
15307;SDS011;7755;52.208;6.964;2023-10-19T20:40:30;35.70;;;27.03;;
15307;SDS011;7755;52.208;6.964;2023-10-19T20:44:39;30.60;;;24.07;;
15307;SDS011;7755;52.208;6.964;2023-10-19T20:48:42;31.23;;;24.50;;
15307;SDS011;7755;52.208;6.964;2023-10-19T20:52:45;29.23;;;23.33;;
15307;SDS011;7755;52.208;6.964;2023-10-19T20:56:48;37.73;;;27.30;;
15307;SDS011;7755;52.208;6.964;2023-10-19T21:00:52;30.90;;;24.73;;
15307;SDS011;7755;52.208;6.964;2023-10-19T21:04:55;29.40;;;24.30;;
15307;SDS011;7755;52.208;6.964;2023-10-19T21:08:58;33.00;;;24.77;;
15307;SDS011;7755;52.208;6.964;2023-10-19T21:13:01;32.77;;;26.40;;
15307;SDS011;7755;52.208;6.964;2023-10-19T21:17:06;34.90;;;26.73;;
15307;SDS011;7755;52.208;6.964;2023-10-19T21:21:09;31.00;;;25.37;;
15307;SDS011;7755;52.208;6.964;2023-10-19T21:25:13;34.07;;;26.70;;
15307;SDS011;7755;52.208;6.964;2023-10-19T21:29:16;32.07;;;25.07;;
15307;SDS011;7755;52.208;6.964;2023-10-19T21:33:21;32.47;;;27.40;;
15307;SDS011;7755;52.208;6.964;2023-10-19T21:37:25;40.23;;;28.63;;
15307;SDS011;7755;52.208;6.964;2023-10-19T21:41:28;29.90;;;23.77;;
15307;SDS011;7755;52.208;6.964;2023-10-19T21:45:31;31.97;;;26.00;;
15307;SDS011;7755;52.208;6.964;2023-10-19T21:49:36;31.90;;;26.10;;
15307;SDS011;7755;52.208;6.964;2023-10-19T21:53:38;32.17;;;24.30;;
15307;SDS011;7755;52.208;6.964;2023-10-19T21:57:42;31.60;;;24.60;;
15307;SDS011;7755;52.208;6.964;2023-10-19T22:01:45;29.43;;;24.33;;
15307;SDS011;7755;52.208;6.964;2023-10-19T22:05:49;38.07;;;27.03;;
15307;SDS011;7755;52.208;6.964;2023-10-19T22:09:52;27.93;;;22.53;;
15307;SDS011;7755;52.208;6.964;2023-10-19T22:13:55;33.77;;;24.60;;
15307;SDS011;7755;52.208;6.964;2023-10-19T22:17:58;30.67;;;24.20;;
15307;SDS011;7755;52.208;6.964;2023-10-19T22:22:02;32.67;;;26.30;;
15307;SDS011;7755;52.208;6.964;2023-10-19T22:26:05;35.87;;;27.17;;
15307;SDS011;7755;52.208;6.964;2023-10-19T22:30:08;33.47;;;26.07;;
15307;SDS011;7755;52.208;6.964;2023-10-19T22:34:14;32.40;;;26.30;;
15307;SDS011;7755;52.208;6.964;2023-10-19T22:38:18;31.40;;;24.63;;
15307;SDS011;7755;52.208;6.964;2023-10-19T22:42:21;42.20;;;28.37;;
15307;SDS011;7755;52.208;6.964;2023-10-19T22:46:24;32.40;;;24.10;;
15307;SDS011;7755;52.208;6.964;2023-10-19T22:50:27;35.10;;;27.77;;
15307;SDS011;7755;52.208;6.964;2023-10-19T22:54:32;30.87;;;23.87;;
15307;SDS011;7755;52.208;6.964;2023-10-19T22:58:35;34.63;;;25.20;;
15307;SDS011;7755;52.208;6.964;2023-10-19T23:02:38;36.23;;;27.33;;
15307;SDS011;7755;52.208;6.964;2023-10-19T23:06:41;35.23;;;27.03;;
15307;SDS011;7755;52.208;6.964;2023-10-19T23:10:45;36.03;;;26.50;;
15307;SDS011;7755;52.208;6.964;2023-10-19T23:14:48;34.77;;;27.17;;
15307;SDS011;7755;52.208;6.964;2023-10-19T23:18:51;37.30;;;26.77;;
15307;SDS011;7755;52.208;6.964;2023-10-19T23:22:56;31.73;;;25.50;;
15307;SDS011;7755;52.208;6.964;2023-10-19T23:27:02;33.33;;;24.97;;
15307;SDS011;7755;52.208;6.964;2023-10-19T23:31:05;36.47;;;27.53;;
15307;SDS011;7755;52.208;6.964;2023-10-19T23:35:09;35.10;;;26.20;;
15307;SDS011;7755;52.208;6.964;2023-10-19T23:39:11;37.73;;;27.97;;
15307;SDS011;7755;52.208;6.964;2023-10-19T23:43:24;36.83;;;27.67;;
15307;SDS011;7755;52.208;6.964;2023-10-19T23:47:27;36.10;;;26.63;;
15307;SDS011;7755;52.208;6.964;2023-10-19T23:51:29;37.80;;;27.57;;
15307;SDS011;7755;52.208;6.964;2023-10-19T23:55:32;34.13;;;25.90;;
15307;SDS011;7755;52.208;6.964;2023-10-19T23:59:36;36.57;;;27.70;;
